Time;durP1;ratioP1;P1;durP2;ratioP2;P2;SDS_P1;SDS_P2;PMS_P1;PMS_P2;Temp;Humidity;BMP_temperature;BMP_pressure;BME280_temperature;BME280_humidity;BME280_pressure;Samples;Min_cycle;Max_cycle;Signal;HPM_P1;HPM_P2
2022/01/11 00:01:45;;;;;;;39.08;15.90;;;;;;;-0.21;100.00;102674.00;5029007;28;20060;-73
2022/01/11 00:04:12;;;;;;;38.75;15.73;;;;;;;-0.18;100.00;102631.59;4996612;28;20026;-73
2022/01/11 00:06:42;;;;;;;42.78;16.63;;;;;;;-0.76;100.00;102591.59;5013538;28;20476;-73
2022/01/11 00:09:19;;;;;;;42.45;16.85;;;;;;;-0.04;100.00;102634.00;5014511;28;20121;-73
2022/01/11 00:11:46;;;;;;;41.92;16.65;;;;;;;-0.52;100.00;102642.38;5030329;28;20061;-73
2022/01/11 00:14:12;;;;;;;45.80;17.33;;;;;;;-0.42;100.00;102596.41;5013607;28;20036;-74
2022/01/11 00:16:38;;;;;;;39.80;16.13;;;;;;;-0.06;100.00;102621.03;5029662;28;20041;-74
2022/01/11 00:19:06;;;;;;;40.70;16.77;;;;;;;-0.17;100.00;102664.44;5030416;28;20367;-74
2022/01/11 00:21:43;;;;;;;40.17;16.38;;;;;;;0.14;100.00;102674.47;5012589;28;20033;-74
2022/01/11 00:26:54;;;;;;;46.45;17.23;;;;;;;-0.42;100.00;102609.38;4996702;28;20041;-73
2022/01/11 00:29:20;;;;;;;38.97;16.02;;;;;;;-0.69;100.00;102681.44;5013647;28;20030;-73
2022/01/11 00:31:47;;;;;;;40.88;16.50;;;;;;;-0.40;100.00;102677.69;4996447;28;20048;-73
2022/01/11 00:34:15;;;;;;;38.30;15.38;;;;;;;-0.68;100.00;102627.81;5029233;28;20479;-73
2022/01/11 00:36:42;;;;;;;36.92;14.77;;;;;;;-0.65;100.00;102661.53;4997445;28;20364;-73
2022/01/11 00:39:12;;;;;;;39.28;15.98;;;;;;;-0.08;100.00;102661.72;4996915;28;20045;-74
2022/01/11 00:41:42;;;;;;;39.17;16.25;;;;;;;-0.34;100.00;102648.19;5014488;28;20033;-74
2022/01/11 00:44:09;;;;;;;40.33;16.13;;;;;;;-0.67;100.00;102639.94;5013451;28;20026;-73
2022/01/11 00:46:35;;;;;;;37.20;14.65;;;;;;;-0.86;100.00;102658.28;5028403;28;20030;-74
2022/01/11 00:49:00;;;;;;;41.92;16.48;;;;;;;-0.56;100.00;102669.22;5013423;28;20029;-74
2022/01/11 00:51:26;;;;;;;44.75;16.85;;;;;;;-1.17;100.00;102639.53;5013211;28;20097;-74
2022/01/11 00:53:52;;;;;;;43.85;16.83;;;;;;;-1.01;100.00;102635.06;5028091;28;20129;-74
2022/01/11 00:56:18;;;;;;;44.75;16.08;;;;;;;-0.50;100.00;102650.13;5028414;28;20372;-74
2022/01/11 00:58:47;;;;;;;42.45;16.65;;;;;;;-0.67;100.00;102663.28;5028559;28;20388;-74
2022/01/11 01:02:01;;;;;;;46.90;17.23;;;;;;;-0.74;100.00;102657.28;5014362;28;20356;-74
2022/01/11 01:04:28;;;;;;;51.00;18.88;;;;;;;-1.03;100.00;102641.16;5014056;28;20029;-74
2022/01/11 01:06:54;;;;;;;50.38;18.33;;;;;;;-0.96;100.00;102676.53;4997216;28;20033;-74
2022/01/11 01:09:20;;;;;;;53.55;17.70;;;;;;;-1.19;100.00;102677.56;5013711;28;20031;-74
2022/01/11 01:11:46;;;;;;;47.17;17.90;;;;;;;-0.73;100.00;102676.31;5015877;28;20175;-74
2022/01/11 01:17:55;;;;;;;50.10;17.77;;;;;;;-0.78;100.00;102663.38;5019989;28;20045;-74
2022/01/11 01:20:21;;;;;;;47.33;17.08;;;;;;;-1.06;100.00;102650.66;5018232;28;20101;-74
2022/01/11 01:22:50;;;;;;;45.33;16.98;;;;;;;-0.76;100.00;102669.41;5018235;28;20475;-74
2022/01/11 01:25:23;;;;;;;47.08;17.55;;;;;;;-0.90;100.00;102655.72;5034415;28;20018;-74
2022/01/11 01:27:51;;;;;;;48.22;16.95;;;;;;;-0.74;100.00;102635.69;5021986;28;20033;-73
2022/01/11 01:30:17;;;;;;;46.97;17.17;;;;;;;-0.96;100.00;102681.69;5020906;28;20046;-74
2022/01/11 01:32:44;;;;;;;46.97;16.83;;;;;;;-0.94;100.00;102691.19;5022721;28;20041;-74
2022/01/11 01:35:12;;;;;;;48.40;18.33;;;;;;;-1.01;100.00;102691.25;5037534;28;20088;-73
2022/01/11 01:37:37;;;;;;;53.63;18.73;;;;;;;-0.61;100.00;102704.75;5021532;28;20032;-74
2022/01/11 01:40:05;;;;;;;51.25;17.77;;;;;;;-0.65;100.00;102688.34;5019362;28;20053;-73
2022/01/11 01:42:31;;;;;;;50.50;19.00;;;;;;;-0.64;100.00;102684.00;5020090;28;20032;-74
2022/01/11 01:48:38;;;;;;;50.17;17.67;;;;;;;-0.88;100.00;102704.09;5022621;28;20053;-74
2022/01/11 01:51:08;;;;;;;54.55;19.40;;;;;;;-0.94;100.00;102698.13;5004066;28;20022;-74
2022/01/11 01:53:38;;;;;;;53.97;18.83;;;;;;;-0.86;100.00;102694.59;5019797;28;20032;-73
2022/01/11 01:56:05;;;;;;;57.47;19.63;;;;;;;-0.95;100.00;102714.56;5024846;28;20125;-74
2022/01/11 01:58:31;;;;;;;56.53;19.50;;;;;;;-0.48;100.00;102718.44;5041875;28;20526;-74
2022/01/11 02:04:10;;;;;;;53.92;18.75;;;;;;;-0.73;100.00;102718.66;5094911;27;20400;-73
2022/01/11 02:13:01;;;;;;;57.88;19.27;;;;;;;-1.40;100.00;102665.63;5198933;27;20375;-73
2022/01/11 08:45:13;;;;;;;59.70;20.95;;;;;;;-1.28;100.00;102859.06;5061833;27;20433;-77
2022/01/11 08:47:39;;;;;;;59.03;20.98;;;;;;;-1.45;100.00;102850.50;5056840;28;20120;-77
2022/01/11 08:50:09;;;;;;;58.55;21.52;;;;;;;-1.02;100.00;102869.34;5055240;28;20048;-76
2022/01/11 08:52:34;;;;;;;;;;;;;;;-0.85;100.00;102871.81;5061046;28;20021;-77
2022/01/11 08:55:01;;;;;;;76.72;27.25;;;;;;;-1.15;100.00;102815.81;5046341;28;20505;-78
2022/01/11 08:57:31;;;;;;;56.28;22.65;;;;;;;-0.82;100.00;102843.25;5050824;28;20036;-78
2022/01/11 09:00:16;;;;;;;53.33;20.45;;;;;;;-0.96;100.00;102842.50;5065591;28;20104;-77
2022/01/11 09:02:44;;;;;;;54.03;20.13;;;;;;;-0.76;100.00;102857.94;5077228;28;20075;-77
2022/01/11 09:05:11;;;;;;;48.70;18.77;;;;;;;-0.89;100.00;102880.47;5059231;28;20025;-77
2022/01/11 09:07:37;;;;;;;48.38;19.75;;;;;;;-0.82;100.00;102876.13;5057004;28;20025;-75
2022/01/11 09:10:04;;;;;;;55.10;19.25;;;;;;;-0.82;100.00;102829.44;5087718;28;20463;-76
2022/01/11 09:12:30;;;;;;;50.03;18.40;;;;;;;-0.59;100.00;102848.31;5054631;28;20434;-76
2022/01/11 09:14:55;;;;;;;50.20;18.55;;;;;;;-0.52;100.00;102804.97;5060793;28;20075;-77
2022/01/11 09:17:30;;;;;;;53.55;20.00;;;;;;;-0.31;100.00;102853.28;5064804;28;20029;-76
2022/01/11 09:19:56;;;;;;;51.20;18.55;;;;;;;-0.30;100.00;102860.19;5043802;28;20021;-75
2022/01/11 09:22:23;;;;;;;47.30;18.65;;;;;;;-0.25;100.00;102880.06;5053708;28;20021;-77
2022/01/11 09:24:48;;;;;;;44.72;17.08;;;;;;;-0.90;100.00;102858.88;5066762;28;20044;-77
2022/01/11 09:27:14;;;;;;;41.45;16.42;;;;;;;-0.69;100.00;102864.81;5064662;28;20026;-77
2022/01/11 09:29:50;;;;;;;45.13;16.63;;;;;;;-0.60;100.00;102866.47;5078095;28;20091;-73
2022/01/11 09:32:20;;;;;;;44.30;17.63;;;;;;;-0.61;100.00;102834.47;5056418;28;20037;-73
2022/01/11 09:34:46;;;;;;;42.42;17.10;;;;;;;-0.47;100.00;102863.78;5024111;28;20048;-75
2022/01/11 09:37:13;;;;;;;40.05;16.67;;;;;;;-0.85;100.00;102871.81;5037521;28;20113;-74
2022/01/11 09:39:41;;;;;;;44.65;17.55;;;;;;;-0.32;100.00;102887.88;5039709;28;20049;-75
2022/01/11 09:42:08;;;;;;;41.72;16.70;;;;;;;-0.46;100.00;102873.28;5038238;28;20060;-75
2022/01/11 09:44:39;;;;;;;40.67;16.70;;;;;;;-0.51;100.00;102872.44;5020066;28;20049;-75
2022/01/11 09:47:11;;;;;;;42.30;18.13;;;;;;;-0.64;100.00;102845.75;5038888;28;20052;-75
2022/01/11 09:49:38;;;;;;;40.42;16.35;;;;;;;-0.26;100.00;102880.91;5071440;28;20144;-76
2022/01/11 09:52:12;;;;;;;44.25;16.95;;;;;;;-0.53;100.00;102888.91;5072750;28;20026;-75
2022/01/11 09:54:40;;;;;;;39.22;15.88;;;;;;;-0.28;100.00;102879.19;5065099;28;20034;-75
2022/01/11 09:57:07;;;;;;;42.50;17.33;;;;;;;-0.13;100.00;102881.69;5022592;28;20076;-76
2022/01/11 09:59:33;;;;;;;40.00;17.10;;;;;;;-0.07;100.00;102865.16;5037918;28;20119;-77
2022/01/11 10:01:59;;;;;;;40.47;16.52;;;;;;;-0.37;100.00;102842.94;5045175;28;20029;-77
2022/01/11 10:04:31;;;;;;;41.97;16.45;;;;;;;0.04;100.00;102870.25;5051102;28;20452;-77
2022/01/11 10:07:00;;;;;;;34.17;14.48;;;;;;;-0.62;100.00;102819.78;5050066;28;20029;-76
2022/01/11 10:09:31;;;;;;;37.05;15.35;;;;;;;-0.14;100.00;102879.94;5048939;28;20023;-76
2022/01/11 10:12:13;;;;;;;37.97;15.52;;;;;;;0.15;100.00;102890.06;5038323;28;20079;-78
2022/01/11 10:14:52;;;;;;;97.55;38.50;;;;;;;-0.34;100.00;102836.00;5047762;23;20058;-78
2022/01/11 10:17:23;;;;;;;35.78;14.77;;;;;;;0.02;100.00;102900.59;4970465;28;20071;-78
2022/01/11 10:20:10;;;;;;;35.78;15.10;;;;;;;-0.42;100.00;102838.63;4949434;29;20027;-77
2022/01/11 10:22:49;;;;;;;30.80;14.43;;;;;;;-0.05;100.00;102902.38;5004056;28;20035;-77
2022/01/11 10:25:16;;;;;;;46.20;20.33;;;;;;;-0.29;100.00;102867.09;4982677;28;20038;-77
2022/01/11 10:27:53;;;;;;;34.10;15.73;;;;;;;-0.16;100.00;102892.09;4992480;28;20034;-77
2022/01/11 10:30:23;;;;;;;35.15;15.55;;;;;;;-0.21;100.00;102857.50;4961947;28;20472;-78
2022/01/11 10:32:51;;;;;;;35.08;14.00;;;;;;;-0.19;100.00;102883.47;4976874;28;20023;-78
2022/01/11 10:35:23;;;;;;;30.40;14.05;;;;;;;0.14;100.00;102898.75;4957225;29;20031;-78
2022/01/11 10:37:52;;;;;;;30.95;13.68;;;;;;;0.12;100.00;102881.44;5011167;23;20087;-78
2022/01/11 10:40:23;;;;;;;31.33;13.13;;;;;;;0.56;100.00;102895.69;4994101;28;20062;-76
2022/01/11 10:43:05;;;;;;;30.60;14.13;;;;;;;0.09;100.00;102863.28;4993498;28;20037;-79
2022/01/11 10:45:41;;;;;;;27.90;12.40;;;;;;;0.28;100.00;102914.19;4974372;28;20033;-77
2022/01/11 10:48:25;;;;;;;30.23;13.32;;;;;;;0.06;100.00;102865.91;4989649;28;20102;-79
2022/01/11 10:51:18;;;;;;;33.05;13.88;;;;;;;0.33;100.00;102875.16;4984336;28;20057;-77
2022/01/11 10:53:49;;;;;;;33.35;13.18;;;;;;;0.36;100.00;102844.81;4950285;28;20031;-78
2022/01/11 10:56:38;;;;;;;31.92;12.45;;;;;;;0.03;100.00;102845.19;4984894;28;20394;-78
2022/01/11 10:59:10;;;;;;;24.90;12.20;;;;;;;0.45;100.00;102897.56;4990474;28;20030;-78
2022/01/11 11:01:50;;;;;;;32.72;12.50;;;;;;;0.62;100.00;102896.50;4971662;28;20030;-78
2022/01/11 11:04:38;;;;;;;31.70;12.75;;;;;;;0.70;100.00;102900.75;5007172;28;20053;-78
2022/01/11 11:07:35;;;;;;;35.53;15.30;;;;;;;0.61;100.00;102875.69;4995513;28;20091;-77
2022/01/11 11:10:03;;;;;;;28.20;12.52;;;;;;;1.14;100.00;102883.72;5362924;23;20092;-76
2022/01/11 11:12:28;;;;;;;27.95;11.50;;;;;;;0.70;100.00;102781.13;5005079;28;20042;-77
2022/01/11 11:15:01;;;;;;;23.92;11.25;;;;;;;1.25;100.00;102916.50;5009957;28;20494;-76
2022/01/11 11:17:36;;;;;;;25.67;10.73;;;;;;;1.66;100.00;102904.63;5005605;28;20027;-75
2022/01/11 11:20:08;;;;;;;28.70;10.85;;;;;;;1.93;100.00;102909.38;5013584;28;20030;-75
2022/01/11 11:22:34;;;;;;;25.48;11.15;;;;;;;2.05;100.00;102911.78;4997428;28;20014;-76
2022/01/11 11:25:02;;;;;;;24.52;10.60;;;;;;;1.88;100.00;102879.06;4996207;28;20030;-77
2022/01/11 11:27:30;;;;;;;23.48;10.65;;;;;;;2.40;100.00;102842.50;4995021;28;20061;-77
2022/01/11 11:29:57;;;;;;;22.48;10.30;;;;;;;2.58;100.00;102846.47;5014651;28;20026;-75
2022/01/11 11:32:26;;;;;;;24.02;11.38;;;;;;;2.36;100.00;102857.31;4997152;28;20022;-76
2022/01/11 11:34:52;;;;;;;25.83;11.07;;;;;;;1.84;100.00;102767.09;5014157;28;20085;-75
2022/01/11 11:37:43;;;;;;;23.45;11.00;;;;;;;3.28;100.00;102911.97;5011287;28;20080;-75
2022/01/11 11:40:19;;;;;;;25.67;11.02;;;;;;;3.01;100.00;102856.84;5012019;28;20029;-76
2022/01/11 11:42:53;;;;;;;21.75;10.05;;;;;;;2.34;100.00;102808.72;4988448;28;20117;-77
2022/01/11 11:45:25;;;;;;;33.77;14.40;;;;;;;3.46;100.00;102705.19;5008146;28;20033;-76
2022/01/11 11:47:51;;;;;;;21.00;9.10;;;;;;;2.76;100.00;102688.69;4997301;28;20268;-77
2022/01/11 11:50:26;;;;;;;21.83;10.55;;;;;;;4.36;100.00;102923.22;5005106;28;20444;-78
2022/01/11 11:52:55;;;;;;;23.33;10.35;;;;;;;3.93;100.00;102925.22;4987006;28;20164;-77
2022/01/11 11:55:23;;;;;;;22.58;10.95;;;;;;;3.72;100.00;102905.72;4991587;28;20113;-78
2022/01/11 11:57:56;;;;;;;23.05;10.75;;;;;;;1.82;100.00;102672.53;5010597;28;20014;-74
2022/01/11 12:00:30;;;;;;;20.35;8.82;;;;;;;2.11;100.00;102830.00;5000046;28;20022;-74
2022/01/11 12:03:19;;;;;;;21.90;10.27;;;;;;;2.39;100.00;102809.50;5016167;28;20038;-75
2022/01/11 12:05:47;;;;;;;22.67;10.15;;;;;;;2.13;100.00;102789.16;5011955;28;20039;-75
2022/01/11 12:08:27;;;;;;;23.70;9.95;;;;;;;3.06;100.00;102909.81;5010775;28;20033;-77
2022/01/11 12:10:56;;;;;;;24.27;10.23;;;;;;;3.44;100.00;102897.66;5021304;28;20049;-74
2022/01/11 12:13:48;;;;;;;29.50;13.55;;;;;;;4.15;100.00;102895.88;5021374;28;20519;-76
2022/01/11 12:16:23;;;;;;;25.42;10.77;;;;;;;3.94;100.00;102889.47;5025774;28;20025;-76
2022/01/11 12:18:50;;;;;;;23.77;10.57;;;;;;;3.37;100.00;102762.03;5010783;28;20095;-73
2022/01/11 12:21:17;;;;;;;23.98;9.55;;;;;;;3.48;100.00;102752.19;5022876;28;20022;-74
2022/01/11 12:23:50;;;;;;;20.27;9.88;;;;;;;4.04;100.00;102888.31;4991680;28;20027;-75
2022/01/11 12:26:20;;;;;;;22.05;10.50;;;;;;;2.95;100.00;102861.34;4998214;28;20484;-74
2022/01/11 12:29:05;;;;;;;24.13;11.13;;;;;;;3.41;100.00;102881.22;5011565;28;20460;-76
2022/01/11 12:31:48;;;;;;;26.38;10.63;;;;;;;2.87;100.00;102888.47;5013654;28;20365;-75
2022/01/11 12:34:20;;;;;;;22.33;10.23;;;;;;;2.09;100.00;102832.69;4999698;28;20025;-75
2022/01/11 12:36:53;;;;;;;24.17;10.25;;;;;;;2.44;100.00;102885.88;5011506;28;20040;-75
2022/01/11 12:39:43;;;;;;;24.42;9.95;;;;;;;1.92;100.00;102757.41;5009004;28;20084;-76
2022/01/11 12:42:26;;;;;;;21.45;10.18;;;;;;;2.47;100.00;102891.03;5004886;28;20065;-77
2022/01/11 12:47:47;;;;;;;24.95;10.77;;;;;;;2.67;100.00;102919.31;4991380;28;20034;-75
2022/01/11 12:50:16;;;;;;;27.88;10.70;;;;;;;2.27;100.00;102816.69;4958354;28;20034;-75
2022/01/11 12:52:47;;;;;;;26.92;11.55;;;;;;;1.77;100.00;102726.44;4989468;28;20535;-80
2022/01/11 12:55:14;;;;;;;25.38;10.35;;;;;;;2.07;100.00;102730.22;4982079;28;20034;-77
2022/01/11 12:57:40;;;;;;;28.65;11.52;;;;;;;1.76;100.00;102707.34;4985332;28;20034;-78
2022/01/11 13:00:15;;;;;;;26.55;11.45;;;;;;;3.10;100.00;102874.91;5017936;28;20466;-80
2022/01/11 13:02:41;;;;;;;63.20;26.17;;;;;;;2.81;100.00;102799.03;4995309;28;20034;-75
2022/01/11 13:05:14;;;;;;;27.30;10.90;;;;;;;2.04;100.00;102665.97;5013474;28;20075;-77
2022/01/11 13:07:45;;;;;;;25.17;10.55;;;;;;;2.64;100.00;102804.63;4994382;28;20033;-77
2022/01/11 13:10:29;;;;;;;28.73;12.02;;;;;;;4.40;100.00;102872.53;4999638;28;20046;-77
2022/01/11 13:13:16;;;;;;;22.48;9.30;;;;;;;7.26;100.00;102853.28;4977190;28;20042;-76
2022/01/11 13:15:49;;;;;;;19.70;8.88;;;;;;;9.01;100.00;102707.75;5003101;28;20085;-76
2022/01/11 13:18:23;;;;;;;21.02;8.52;;;;;;;11.33;93.28;102734.75;5009616;28;20041;-77
2022/01/11 13:20:48;;;;;;;24.48;11.32;;;;;;;8.51;100.00;102861.16;4984981;28;20451;-76
2022/01/11 13:23:25;;;;;;;;;;;;;;;8.12;100.00;102854.94;4978236;28;20070;-75
2022/01/11 13:25:52;;;;;;;;;;;;;;;6.95;100.00;102858.03;4961296;28;19914;-75
2022/01/11 13:28:19;;;;;;;;;;;;;;;5.70;100.00;102854.63;4978727;28;19918;-76
2022/01/11 13:30:51;;;;;;;;;;;;;;;5.29;100.00;102867.31;4979033;28;19914;-77
2022/01/11 13:33:29;;;;;;;;;;;;;;;4.58;100.00;102863.31;4981120;28;19934;-76
2022/01/11 13:35:57;;;;;;;;;;;;;;;4.35;100.00;102863.97;4980538;28;20291;-76
2022/01/11 13:38:29;;;;;;;;;;;;;;;3.87;100.00;102872.22;4979893;28;19972;-75
2022/01/11 13:40:55;;;;;;;;;;;;;;;3.68;100.00;102869.22;4980580;28;19920;-77
2022/01/11 13:43:37;;;;;;;;;;;;;;;3.43;100.00;102862.00;4996515;28;20004;-75
2022/01/11 13:46:13;;;;;;;;;;;;;;;3.37;100.00;102862.13;4980157;28;19921;-76
2022/01/11 13:48:43;;;;;;;;;;;;;;;3.17;100.00;102856.50;4983497;28;19960;-75
2022/01/11 13:51:32;;;;;;;;;;;;;;;3.16;100.00;102862.59;4963678;28;19921;-75
2022/01/11 13:54:06;;;;;;;28.93;10.60;;;;;;;2.05;100.00;102724.16;4980364;28;19915;-75
2022/01/11 13:56:40;;;;;;;22.83;9.68;;;;;;;2.21;100.00;102742.94;5011891;28;20026;-76
2022/01/11 13:59:06;;;;;;;27.05;12.93;;;;;;;2.42;100.00;102755.53;5012860;28;20030;-75
2022/01/11 14:01:32;;;;;;;27.00;10.75;;;;;;;3.06;100.00;102861.97;4976904;28;20123;-77
2022/01/11 14:04:15;;;;;;;;;;;;;;;3.43;100.00;102875.06;5007865;28;20380;-76
2022/01/11 14:06:48;;;;;;;;;;;;;;;3.69;100.00;102879.63;5010690;28;19918;-74
2022/01/11 14:09:37;;;;;;;;;;;;;;;3.60;100.00;102881.63;4999635;28;19913;-75
2022/01/11 14:12:13;;;;;;;;;;;;;;;3.28;100.00;102876.25;5014485;28;19924;-74
2022/01/11 14:14:39;;;;;;;;;;;;;;;3.60;100.00;102887.69;5012696;28;19913;-73
2022/01/11 14:17:42;;;;;;;;;;;;;;;3.69;100.00;102892.69;5020694;28;19914;-76
2022/01/11 14:20:23;;;;;;;26.83;9.90;;;;;;;2.12;100.00;102746.59;5006018;28;19923;-75
2022/01/11 14:22:52;;;;;;;25.38;10.38;;;;;;;1.61;100.00;102643.41;5038912;28;20040;-75
2022/01/11 14:25:31;;;;;;;25.58;10.52;;;;;;;1.59;100.00;102623.47;5025107;28;20083;-76
2022/01/11 14:27:59;;;;;;;27.75;9.80;;;;;;;3.10;100.00;102915.84;5041830;28;20025;-76
2022/01/11 14:30:52;;;;;;;21.77;10.05;;;;;;;2.09;100.00;102804.84;5038492;28;20169;-75
2022/01/11 14:33:47;;;;;;;23.63;9.63;;;;;;;2.93;100.00;102896.19;5021456;28;20382;-76
2022/01/11 14:36:19;;;;;;;26.38;10.57;;;;;;;2.22;100.00;102783.75;5020594;28;20029;-77
2022/01/11 14:38:51;;;;;;;24.65;9.85;;;;;;;2.44;100.00;102818.06;5021524;28;20034;-76
2022/01/11 14:41:23;;;;;;;21.58;9.43;;;;;;;1.52;100.00;102698.25;5039636;28;20052;-75
2022/01/11 14:44:04;;;;;;;22.90;10.27;;;;;;;3.05;100.00;102908.09;5023389;28;20033;-76
2022/01/11 14:47:05;;;;;;;25.05;11.10;;;;;;;3.04;100.00;102911.59;5027174;28;20034;-78
2022/01/11 14:49:36;;;;;;;25.02;10.50;;;;;;;2.62;100.00;102869.00;4987033;28;20136;-75
2022/01/11 14:52:16;;;;;;;25.23;10.05;;;;;;;2.77;100.00;102892.19;4997546;28;20057;-75
2022/01/11 14:54:54;;;;;;;24.45;10.25;;;;;;;2.87;100.00;102913.72;4966315;28;20154;-75
2022/01/11 14:57:20;;;;;;;35.58;11.48;;;;;;;2.57;100.00;102848.22;4968961;28;20027;-75
2022/01/11 14:59:55;;;;;;;42.03;11.85;;;;;;;2.59;100.00;102829.94;4979411;28;20035;-75
2022/01/11 15:02:24;;;;;;;;;;;;;;;2.85;100.00;102921.56;4963456;28;20029;-76
2022/01/11 15:05:03;;;;;;;24.60;10.43;;;;;;;2.78;100.00;102919.13;4978332;28;19952;-78
2022/01/11 15:07:37;;;;;;;26.33;12.10;;;;;;;2.57;100.00;102879.53;4962888;28;20132;-75
2022/01/11 15:10:03;;;;;;;27.60;11.20;;;;;;;2.02;100.00;102784.13;4960875;28;20070;-75
2022/01/11 15:12:29;;;;;;;28.10;10.63;;;;;;;1.84;100.00;102739.34;4960801;28;20043;-76
2022/01/11 15:14:57;;;;;;;28.75;11.50;;;;;;;2.75;100.00;102895.69;4977279;28;20101;-76
2022/01/11 15:17:25;;;;;;;29.80;11.95;;;;;;;1.60;100.00;102672.94;4961741;28;20066;-76
2022/01/11 15:19:56;;;;;;;31.98;11.70;;;;;;;1.88;100.00;102767.06;4960838;28;20127;-75
2022/01/11 15:22:35;;;;;;;23.30;10.75;;;;;;;2.92;100.00;102917.06;4962127;28;20047;-75
2022/01/11 15:25:09;;;;;;;21.90;9.55;;;;;;;2.29;100.00;102867.03;5016614;28;20036;-75
2022/01/11 15:27:44;;;;;;;31.23;11.55;;;;;;;1.88;100.00;102779.19;5013017;28;20369;-75
2022/01/11 15:30:11;;;;;;;35.20;12.50;;;;;;;2.25;100.00;102852.34;4999831;28;20534;-76
2022/01/11 15:32:38;;;;;;;30.35;11.40;;;;;;;1.86;100.00;102810.50;5016707;28;20065;-76
2022/01/11 15:35:06;;;;;;;37.92;13.13;;;;;;;2.60;100.00;102883.81;5016859;28;20030;-75
2022/01/11 15:37:32;;;;;;;26.70;11.73;;;;;;;2.56;100.00;102956.03;5017274;28;20045;-74
2022/01/11 15:39:58;;;;;;;29.25;11.15;;;;;;;2.56;100.00;102934.31;5016424;28;20480;-74
2022/01/11 15:42:24;;;;;;;34.30;11.98;;;;;;;1.77;100.00;102817.59;5016134;28;20021;-75
2022/01/11 15:44:51;;;;;;;28.23;11.23;;;;;;;1.46;100.00;102719.22;5000092;28;20030;-77
2022/01/11 15:47:18;;;;;;;30.48;12.30;;;;;;;1.93;100.00;102855.53;5015672;28;20361;-78
2022/01/11 15:49:44;;;;;;;31.45;12.07;;;;;;;2.27;100.00;102914.84;5001024;28;20460;-75
2022/01/11 15:52:09;;;;;;;28.13;11.25;;;;;;;2.48;100.00;102909.25;5447444;23;20124;-72
2022/01/11 15:54:35;;;;;;;26.08;11.13;;;;;;;2.40;100.00;102957.22;4996141;28;20052;-72
2022/01/11 15:57:01;;;;;;;28.05;11.82;;;;;;;2.51;100.00;102942.25;4995078;28;20045;-74
2022/01/11 15:59:27;;;;;;;28.60;12.40;;;;;;;2.24;100.00;102902.75;4979763;28;20254;-75
2022/01/11 16:01:53;;;;;;;28.02;11.65;;;;;;;2.38;100.00;102915.53;4979276;28;20445;-73
2022/01/11 16:04:21;;;;;;;26.13;10.95;;;;;;;2.49;100.00;102977.91;4995181;28;20030;-74
2022/01/11 16:06:50;;;;;;;29.83;12.18;;;;;;;2.19;100.00;102925.44;4978540;28;20026;-73
2022/01/11 16:09:16;;;;;;;31.23;12.43;;;;;;;2.37;100.00;102932.06;4993881;28;20018;-74
2022/01/11 16:11:42;;;;;;;31.60;11.75;;;;;;;2.23;100.00;102937.53;4994208;28;20034;-74
2022/01/11 16:14:08;;;;;;;30.67;11.27;;;;;;;2.33;100.00;102973.88;5011384;28;20022;-72
2022/01/11 16:16:34;;;;;;;25.40;11.05;;;;;;;2.38;100.00;102964.22;4979380;28;20480;-73
2022/01/11 16:19:00;;;;;;;30.15;11.02;;;;;;;2.25;100.00;102968.81;4998916;28;20026;-75
2022/01/11 16:21:26;;;;;;;32.08;11.15;;;;;;;1.98;100.00;102931.88;4987258;28;20038;-74
2022/01/11 16:23:52;;;;;;;32.70;11.50;;;;;;;2.29;100.00;102966.09;4998715;28;20053;-74
2022/01/11 16:26:17;;;;;;;29.65;11.25;;;;;;;2.14;100.00;102971.59;5001241;28;20409;-73
2022/01/11 16:28:44;;;;;;;29.15;10.32;;;;;;;2.34;100.00;102986.00;4978623;28;20104;-73
2022/01/11 16:31:10;;;;;;;32.67;11.40;;;;;;;2.40;100.00;102981.53;4994022;28;20022;-74
2022/01/11 16:33:36;;;;;;;31.05;11.02;;;;;;;2.16;100.00;102972.41;4993659;28;20034;-73
2022/01/11 16:36:03;;;;;;;29.48;11.43;;;;;;;2.20;100.00;102968.88;4993230;28;20384;-73
2022/01/11 16:38:32;;;;;;;32.28;12.63;;;;;;;2.09;100.00;102943.00;4993920;28;20026;-73
2022/01/11 16:43:42;;;;;;;30.38;11.63;;;;;;;2.24;100.00;102949.66;4995972;28;20028;-77
2022/01/11 16:46:08;;;;;;;31.75;11.98;;;;;;;2.05;100.00;102927.44;4978552;28;20100;-73
2022/01/11 16:48:39;;;;;;;31.40;12.77;;;;;;;2.34;100.00;102947.78;4993558;28;20444;-73
2022/01/11 16:51:09;;;;;;;33.13;13.52;;;;;;;2.44;100.00;102956.28;4998193;28;20165;-76
2022/01/11 16:53:37;;;;;;;34.65;14.55;;;;;;;2.47;100.00;102917.94;4982823;28;20053;-79
2022/01/11 16:56:10;;;;;;;36.50;13.95;;;;;;;2.37;100.00;102946.84;4999477;28;20034;-78
2022/01/11 16:58:41;;;;;;;46.78;18.50;;;;;;;2.76;100.00;102989.59;4999947;28;20375;-77
2022/01/11 17:01:39;;;;;;;34.58;13.98;;;;;;;2.71;100.00;102981.00;4999331;28;20033;-78
2022/01/11 17:04:06;;;;;;;37.22;14.50;;;;;;;2.69;100.00;102985.38;5007635;28;20042;-76
2022/01/11 17:06:32;;;;;;;33.53;13.70;;;;;;;2.30;100.00;102917.44;5006946;28;20026;-75
2022/01/11 17:08:58;;;;;;;38.15;15.25;;;;;;;2.30;100.00;102917.44;5012467;23;20074;-72
2022/01/11 17:11:24;;;;;;;37.22;14.35;;;;;;;2.51;100.00;102939.63;4999836;28;20026;-72
2022/01/11 17:13:51;;;;;;;36.83;14.52;;;;;;;2.47;100.00;102923.16;5000902;28;20018;-73
2022/01/11 17:16:21;;;;;;;37.33;14.85;;;;;;;2.78;100.00;102986.97;4983943;28;20026;-73
2022/01/11 17:18:47;;;;;;;51.95;21.52;;;;;;;2.72;100.00;102954.00;5000677;28;20053;-74
2022/01/11 17:21:13;;;;;;;32.53;14.27;;;;;;;2.77;100.00;103001.75;4999479;28;20441;-74
2022/01/11 17:23:39;;;;;;;36.92;14.52;;;;;;;2.66;100.00;102990.66;4983750;28;20081;-74
2022/01/11 17:26:05;;;;;;;36.53;16.13;;;;;;;2.24;100.00;102921.00;5000570;28;20018;-74
2022/01/11 17:28:31;;;;;;;30.15;12.80;;;;;;;1.74;100.00;102848.94;4982619;28;20026;-72
2022/01/11 17:30:56;;;;;;;33.92;13.50;;;;;;;2.13;100.00;102882.97;4983077;28;20447;-76
2022/01/11 17:33:31;;;;;;;37.20;13.15;;;;;;;2.21;100.00;102908.03;4982995;28;20448;-74
2022/01/11 17:35:59;;;;;;;30.80;13.25;;;;;;;1.77;100.00;102882.72;4982538;28;20418;-73
2022/01/11 17:38:25;;;;;;;36.05;13.60;;;;;;;2.57;100.00;102996.06;4982184;28;20030;-74
2022/01/11 17:40:51;;;;;;;30.73;13.07;;;;;;;2.03;100.00;102903.13;4983332;28;20050;-72
2022/01/11 17:43:17;;;;;;;32.55;13.20;;;;;;;2.71;100.00;103002.72;4983995;28;20092;-74
2022/01/11 17:45:42;;;;;;;34.10;13.68;;;;;;;2.42;100.00;102971.09;4999994;28;20042;-77
2022/01/11 17:48:11;;;;;;;33.13;12.48;;;;;;;1.10;100.00;102783.16;4996192;28;20278;-76
2022/01/11 17:50:37;;;;;;;30.65;12.32;;;;;;;1.74;100.00;102868.00;4995793;28;20033;-77
2022/01/11 17:55:44;;;;;;;30.85;11.70;;;;;;;2.53;100.00;103020.47;5091453;23;20066;-76
2022/01/11 17:58:11;;;;;;;33.00;12.15;;;;;;;2.57;100.00;103027.34;4981514;28;20030;-74
2022/01/11 18:01:05;;;;;;;40.75;16.90;;;;;;;2.84;100.00;103012.91;4977738;28;20050;-76
2022/01/11 18:04:18;;;;;;;30.02;11.60;;;;;;;2.10;100.00;102980.34;5012400;23;20490;-75
2022/01/11 18:06:45;;;;;;;35.78;12.63;;;;;;;2.44;100.00;103031.91;4946105;28;20100;-75
2022/01/11 18:09:53;;;;;;;35.75;14.45;;;;;;;2.54;100.00;103030.00;4989475;23;20055;-77
2022/01/11 18:12:20;;;;;;;30.02;12.48;;;;;;;1.28;100.00;102855.72;4999814;28;20047;-78
2022/01/11 18:14:47;;;;;;;36.88;13.55;;;;;;;1.90;100.00;102923.31;4952328;28;20038;-76
2022/01/11 18:17:13;;;;;;;34.30;13.48;;;;;;;1.59;100.00;102883.88;4977804;28;20065;-78
2022/01/11 18:19:41;;;;;;;35.17;12.57;;;;;;;2.39;100.00;103047.63;4987782;23;20092;-78
2022/01/11 18:22:08;;;;;;;34.60;14.18;;;;;;;1.06;100.00;102823.94;4980531;28;20050;-76
2022/01/11 18:24:34;;;;;;;29.73;12.20;;;;;;;1.75;100.00;102944.41;5013261;28;20034;-76
2022/01/11 18:27:01;;;;;;;30.67;11.88;;;;;;;1.43;100.00;102910.19;5006354;28;20026;-80
2022/01/11 18:29:54;;;;;;;33.70;12.65;;;;;;;2.47;100.00;103039.66;5005451;28;20459;-80